createdAt,value
2023-03-21T00:00:45.002Z,37.35
2023-03-21T00:02:07.277Z,36.55
2023-03-21T00:03:28.979Z,38.10
2023-03-21T00:04:53.653Z,40.70
2023-03-21T00:06:17.013Z,38.30
2023-03-21T00:07:39.359Z,37.25
2023-03-21T00:09:04.093Z,37.90
2023-03-21T00:10:39.132Z,38.55
2023-03-21T00:12:07.503Z,39.42
2023-03-21T00:13:32.845Z,38.13
2023-03-21T00:14:56.408Z,38.35
2023-03-21T00:16:21.858Z,38.65
2023-03-21T00:17:50.943Z,39.63
2023-03-21T00:19:14.765Z,38.50
2023-03-21T00:20:37.956Z,39.33
2023-03-21T00:22:08.153Z,40.95
2023-03-21T00:23:34.167Z,39.97
2023-03-21T00:24:56.918Z,38.55
2023-03-21T00:26:18.552Z,39.03
2023-03-21T00:27:57.192Z,38.75
2023-03-21T00:29:24.925Z,38.60
2023-03-21T00:30:46.444Z,38.97
2023-03-21T00:32:09.927Z,41.22
2023-03-21T00:33:34.062Z,39.50
2023-03-21T00:35:16.409Z,39.55
2023-03-21T00:36:38.322Z,39.50
2023-03-21T00:38:01.304Z,39.80
2023-03-21T00:39:23.417Z,40.67
2023-03-21T00:40:49.272Z,40.97
2023-03-21T00:42:11.374Z,39.38
2023-03-21T00:43:33.803Z,42.67
2023-03-21T00:44:59.310Z,39.67
2023-03-21T00:46:23.298Z,39.90
2023-03-21T00:47:44.592Z,40.55
2023-03-21T00:49:07.466Z,40.30
2023-03-21T00:50:28.485Z,41.03
2023-03-21T00:51:53.362Z,41.60
2023-03-21T00:53:16.615Z,41.08
2023-03-21T00:54:38.024Z,42.03
2023-03-21T00:56:00.115Z,41.15
2023-03-21T00:57:37.609Z,40.00
2023-03-21T00:59:02.793Z,41.05
2023-03-21T01:00:24.360Z,39.75
2023-03-21T01:01:47.008Z,39.97
2023-03-21T01:03:23.278Z,40.55
2023-03-21T01:04:46.809Z,38.65
2023-03-21T01:06:09.384Z,40.30
2023-03-21T01:07:31.289Z,39.13
2023-03-21T01:08:53.733Z,43.85
2023-03-21T01:10:16.375Z,48.63
2023-03-21T01:11:38.430Z,45.42
2023-03-21T01:14:26.437Z,43.17
2023-03-21T01:15:50.061Z,41.88
2023-03-21T01:17:12.265Z,40.45
2023-03-21T01:18:35.347Z,41.42
2023-03-21T01:19:57.607Z,36.33
2023-03-21T01:21:20.489Z,33.63
2023-03-21T01:22:41.670Z,34.42
2023-03-21T01:24:04.035Z,31.20
2023-03-21T01:25:25.355Z,36.83
2023-03-21T01:26:47.638Z,33.08
2023-03-21T01:28:09.882Z,32.17
2023-03-21T01:29:33.537Z,34.20
2023-03-21T01:30:54.901Z,33.88
2023-03-21T01:32:17.013Z,32.63
2023-03-21T01:33:38.237Z,33.05
2023-03-21T01:35:00.765Z,34.97
2023-03-21T01:37:50.302Z,32.53
2023-03-21T01:39:12.399Z,30.80
2023-03-21T01:40:33.854Z,28.83
2023-03-21T01:43:30.392Z,29.80
2023-03-21T01:45:00.691Z,32.17
2023-03-21T01:46:51.533Z,31.02
2023-03-21T01:48:40.321Z,26.38
2023-03-21T01:50:05.011Z,28.63
2023-03-21T01:51:47.113Z,29.98
2023-03-21T01:53:13.995Z,31.42
2023-03-21T01:54:40.053Z,31.52
2023-03-21T01:56:07.095Z,33.33
2023-03-21T01:57:58.562Z,27.35
2023-03-21T01:59:30.531Z,29.50
2023-03-21T02:01:28.941Z,28.80
2023-03-21T02:03:06.173Z,28.70
2023-03-21T02:04:41.327Z,25.83
2023-03-21T02:06:16.050Z,26.83
2023-03-21T02:07:44.398Z,28.50
2023-03-21T02:09:16.089Z,27.60
2023-03-21T02:10:37.777Z,27.85
2023-03-21T02:12:01.490Z,31.33
2023-03-21T02:13:25.435Z,30.45
2023-03-21T02:14:50.324Z,27.17
2023-03-21T02:16:46.875Z,28.30
2023-03-21T02:18:18.681Z,28.05
2023-03-21T02:20:34.769Z,30.38
2023-03-21T02:22:28.394Z,29.45
2023-03-21T02:24:12.787Z,32.72
2023-03-21T02:26:10.335Z,30.08
2023-03-21T02:27:35.192Z,32.13
2023-03-21T02:29:02.968Z,28.83
2023-03-21T02:31:15.903Z,31.30
2023-03-21T02:33:04.619Z,29.08
2023-03-21T02:34:54.880Z,30.15
2023-03-21T02:36:26.489Z,31.50
2023-03-21T02:38:00.503Z,32.50
2023-03-21T02:39:28.495Z,30.83
2023-03-21T02:41:03.375Z,30.35
2023-03-21T02:42:36.011Z,30.30
2023-03-21T02:44:06.991Z,32.65
2023-03-21T02:45:36.308Z,31.50
2023-03-21T02:47:06.430Z,35.08
2023-03-21T02:48:49.703Z,34.03
2023-03-21T02:50:17.708Z,33.45
2023-03-21T02:51:42.072Z,32.78
2023-03-21T02:53:08.823Z,31.83
2023-03-21T02:54:47.292Z,34.42
2023-03-21T02:56:11.236Z,36.83
2023-03-21T02:57:43.150Z,36.45
2023-03-21T02:59:07.972Z,34.05
2023-03-21T03:00:33.967Z,36.88
2023-03-21T03:01:57.061Z,36.33
2023-03-21T03:03:33.014Z,34.88
2023-03-21T03:04:56.941Z,37.72
2023-03-21T03:06:24.256Z,35.78
2023-03-21T03:07:58.354Z,36.50
2023-03-21T03:09:32.606Z,35.60
2023-03-21T03:11:10.200Z,35.08
2023-03-21T03:12:44.501Z,33.58
2023-03-21T03:14:50.034Z,35.60
2023-03-21T03:16:25.903Z,37.58
2023-03-21T03:17:55.632Z,36.20
2023-03-21T03:19:26.215Z,36.38
2023-03-21T03:21:01.092Z,38.67
2023-03-21T03:22:27.100Z,37.45
2023-03-21T03:23:54.273Z,36.47
2023-03-21T03:25:36.052Z,36.03
2023-03-21T03:27:08.929Z,35.90
2023-03-21T03:28:36.621Z,35.83
2023-03-21T03:31:33.312Z,33.92
2023-03-21T03:33:01.292Z,35.97
2023-03-21T03:34:28.736Z,37.17
2023-03-21T03:36:04.471Z,34.35
2023-03-21T03:37:33.508Z,33.95
2023-03-21T03:38:56.408Z,35.38
2023-03-21T03:40:26.660Z,34.45
2023-03-21T03:42:15.449Z,34.20
2023-03-21T03:43:52.419Z,35.28
2023-03-21T03:45:14.949Z,36.80
2023-03-21T03:46:45.065Z,33.58
2023-03-21T03:48:14.145Z,36.20
2023-03-21T03:49:42.884Z,33.45
2023-03-21T03:51:10.103Z,31.65
2023-03-21T03:52:59.924Z,34.45
2023-03-21T03:54:29.986Z,33.35
2023-03-21T03:55:55.827Z,35.20
2023-03-21T03:57:18.973Z,32.90
2023-03-21T03:58:45.964Z,36.22
2023-03-21T04:00:13.083Z,34.67
2023-03-21T04:01:43.735Z,35.42
2023-03-21T04:03:07.393Z,35.67
2023-03-21T04:04:31.944Z,36.80
2023-03-21T04:05:54.202Z,35.25
2023-03-21T04:07:16.746Z,35.75
2023-03-21T04:08:37.961Z,35.88
2023-03-21T04:10:00.555Z,35.10
2023-03-21T04:11:24.989Z,34.33
2023-03-21T04:12:48.062Z,34.85
2023-03-21T04:14:44.457Z,33.03
2023-03-21T04:16:09.079Z,32.35
2023-03-21T04:17:33.507Z,35.45
2023-03-21T04:18:57.078Z,33.15
2023-03-21T04:20:30.298Z,34.33
2023-03-21T04:21:58.384Z,33.95
2023-03-21T04:23:21.112Z,36.15
2023-03-21T04:24:44.978Z,33.13
2023-03-21T04:26:08.518Z,38.13
2023-03-21T04:27:36.040Z,37.20
2023-03-21T04:29:17.888Z,34.60
2023-03-21T04:31:03.515Z,33.35
2023-03-21T04:32:39.670Z,33.20
2023-03-21T04:34:12.784Z,34.33
2023-03-21T04:35:39.863Z,37.78
2023-03-21T04:37:03.610Z,35.40
2023-03-21T04:38:30.813Z,37.40
2023-03-21T04:39:56.803Z,36.17
2023-03-21T04:41:18.242Z,36.97
2023-03-21T04:42:42.000Z,37.53
2023-03-21T04:44:04.299Z,35.97
2023-03-21T04:45:26.660Z,36.72
2023-03-21T04:46:47.595Z,33.63
2023-03-21T04:48:10.515Z,38.58
2023-03-21T04:49:32.665Z,33.55
2023-03-21T04:50:54.635Z,35.97
2023-03-21T04:52:16.861Z,36.38
2023-03-21T04:53:39.696Z,37.33
2023-03-21T04:55:02.181Z,35.35
2023-03-21T04:56:30.742Z,37.10
2023-03-21T04:57:54.585Z,37.58
2023-03-21T04:59:17.347Z,36.88
2023-03-21T05:00:40.418Z,36.85
2023-03-21T05:02:02.723Z,38.90
2023-03-21T05:03:25.441Z,36.28
2023-03-21T05:04:47.414Z,36.10
2023-03-21T05:06:10.931Z,36.65
2023-03-21T05:07:33.108Z,37.17
2023-03-21T05:10:17.650Z,37.78
2023-03-21T05:11:40.451Z,37.95
2023-03-21T05:13:04.791Z,38.47
2023-03-21T05:14:28.661Z,37.85
2023-03-21T05:15:50.809Z,37.95
2023-03-21T05:17:25.068Z,37.63
2023-03-21T05:18:50.794Z,36.58
2023-03-21T05:20:16.174Z,39.05
2023-03-21T05:21:44.055Z,38.25
2023-03-21T05:23:11.992Z,36.83
2023-03-21T05:24:34.572Z,38.90
2023-03-21T05:25:56.997Z,38.63
2023-03-21T05:27:36.322Z,38.22
2023-03-21T05:29:05.918Z,38.88
2023-03-21T05:30:28.233Z,37.15
2023-03-21T05:31:54.105Z,35.08
2023-03-21T05:33:16.517Z,36.10
2023-03-21T05:34:38.675Z,38.30
2023-03-21T05:35:59.744Z,37.72
2023-03-21T05:37:25.819Z,37.10
2023-03-21T05:38:47.084Z,38.75
2023-03-21T05:40:11.323Z,39.42
2023-03-21T05:41:37.082Z,37.10
2023-03-21T05:43:00.184Z,35.97
2023-03-21T05:44:22.789Z,36.40
2023-03-21T05:45:45.324Z,38.45
2023-03-21T05:47:08.533Z,36.80
2023-03-21T05:48:38.511Z,38.53
2023-03-21T05:50:11.337Z,36.45
2023-03-21T05:51:35.481Z,34.30
2023-03-21T05:53:00.270Z,38.33
2023-03-21T05:54:22.646Z,39.25
2023-03-21T05:55:45.729Z,38.53
2023-03-21T05:59:00.896Z,35.83
2023-03-21T06:00:27.639Z,37.25
2023-03-21T06:02:23.474Z,36.20
2023-03-21T06:03:45.065Z,35.67
2023-03-21T06:05:17.724Z,35.83
2023-03-21T06:06:39.093Z,36.47
2023-03-21T06:08:01.455Z,37.38
2023-03-21T06:09:23.514Z,37.13
2023-03-21T06:10:50.704Z,35.90
2023-03-21T06:12:14.507Z,35.70
2023-03-21T06:13:48.430Z,35.83
2023-03-21T06:15:11.751Z,35.08
2023-03-21T06:16:47.224Z,35.92
2023-03-21T06:18:09.331Z,35.40
2023-03-21T06:19:34.013Z,34.67
2023-03-21T06:21:03.547Z,35.88
2023-03-21T06:22:27.270Z,34.10
2023-03-21T06:23:51.782Z,33.97
2023-03-21T06:25:12.812Z,36.90
2023-03-21T06:26:35.793Z,37.63
2023-03-21T06:27:59.904Z,35.10
2023-03-21T06:29:22.374Z,35.58
2023-03-21T06:30:45.489Z,34.67
2023-03-21T06:32:28.865Z,33.25
2023-03-21T06:33:57.554Z,33.42
2023-03-21T06:35:20.104Z,33.53
2023-03-21T06:36:45.105Z,35.55
2023-03-21T06:38:08.649Z,37.22
2023-03-21T06:39:31.327Z,35.08
2023-03-21T06:40:53.776Z,35.65
2023-03-21T06:42:18.519Z,35.53
2023-03-21T06:43:41.043Z,37.20
2023-03-21T06:45:03.631Z,35.65
2023-03-21T06:46:26.407Z,35.40
2023-03-21T06:47:49.892Z,36.45
2023-03-21T06:49:26.154Z,33.72
2023-03-21T06:50:50.556Z,36.03
2023-03-21T06:52:14.252Z,33.80
2023-03-21T06:53:37.300Z,34.67
2023-03-21T06:55:29.080Z,32.60
2023-03-21T06:56:54.343Z,31.95
2023-03-21T06:58:21.965Z,32.92
2023-03-21T06:59:44.227Z,31.77
2023-03-21T07:01:12.132Z,35.13
2023-03-21T07:02:46.602Z,34.22
2023-03-21T07:04:15.308Z,33.72
2023-03-21T07:05:38.409Z,32.33
2023-03-21T07:07:03.950Z,32.03
2023-03-21T07:08:27.334Z,31.77
2023-03-21T07:09:52.050Z,33.33
2023-03-21T07:11:14.052Z,31.40
2023-03-21T07:12:36.956Z,31.92
2023-03-21T07:14:16.067Z,30.10
2023-03-21T07:15:39.084Z,31.65
2023-03-21T07:17:10.675Z,30.88
2023-03-21T07:18:36.772Z,30.93
2023-03-21T07:20:07.284Z,30.08
2023-03-21T07:21:29.936Z,28.85
2023-03-21T07:22:54.697Z,27.20
2023-03-21T07:24:23.921Z,29.55
2023-03-21T07:25:45.897Z,28.63
2023-03-21T07:27:11.446Z,27.85
2023-03-21T07:28:34.772Z,29.05
2023-03-21T07:29:57.641Z,31.10
2023-03-21T07:31:22.151Z,31.55
2023-03-21T07:32:45.711Z,28.20
2023-03-21T07:34:10.479Z,30.17
2023-03-21T07:35:40.546Z,28.35
2023-03-21T07:37:03.338Z,30.38
2023-03-21T07:38:27.897Z,29.38
2023-03-21T07:39:50.724Z,30.10
2023-03-21T07:41:13.506Z,33.50
2023-03-21T07:42:39.549Z,30.40
2023-03-21T07:44:02.856Z,29.40
2023-03-21T07:45:29.645Z,29.60
2023-03-21T07:46:59.839Z,30.40
2023-03-21T07:48:23.141Z,30.40
2023-03-21T07:49:46.037Z,31.25
2023-03-21T07:51:13.636Z,31.77
2023-03-21T07:52:36.295Z,29.40
2023-03-21T07:54:02.621Z,28.35
2023-03-21T07:55:25.223Z,31.00
2023-03-21T07:56:51.221Z,31.30
2023-03-21T07:58:15.120Z,30.52
2023-03-21T07:59:39.839Z,31.13
2023-03-21T08:01:03.003Z,32.03
2023-03-21T08:02:28.047Z,29.73
2023-03-21T08:03:59.232Z,30.27
2023-03-21T08:05:31.644Z,30.80
2023-03-21T08:07:07.723Z,31.52
2023-03-21T08:08:31.772Z,29.25
2023-03-21T08:09:58.771Z,31.05
2023-03-21T08:11:27.082Z,29.95
2023-03-21T08:12:55.757Z,30.20
2023-03-21T08:14:23.746Z,29.27
2023-03-21T08:15:50.213Z,27.92
2023-03-21T08:17:12.390Z,29.42
2023-03-21T08:18:38.081Z,27.85
2023-03-21T08:20:02.712Z,26.65
2023-03-21T08:21:27.701Z,26.33
2023-03-21T08:22:52.285Z,27.77
2023-03-21T08:24:14.805Z,25.58
2023-03-21T08:25:37.630Z,27.95
2023-03-21T08:27:00.413Z,27.73
2023-03-21T08:28:30.144Z,27.80
2023-03-21T08:30:01.975Z,25.38
2023-03-21T08:31:27.012Z,24.73
2023-03-21T08:33:00.873Z,24.33
2023-03-21T08:34:24.680Z,23.17
2023-03-21T08:35:57.050Z,23.83
2023-03-21T08:37:20.759Z,24.92
2023-03-21T08:38:54.240Z,24.75
2023-03-21T08:40:26.920Z,26.08
2023-03-21T08:41:53.033Z,24.67
2023-03-21T08:43:18.669Z,26.17
2023-03-21T08:44:41.890Z,27.33
2023-03-21T08:46:06.024Z,24.92
2023-03-21T08:47:28.820Z,25.25
2023-03-21T08:48:51.601Z,25.55
2023-03-21T08:50:16.396Z,26.83
2023-03-21T08:51:43.436Z,26.85
2023-03-21T08:53:05.591Z,26.85
2023-03-21T08:54:31.541Z,26.85
2023-03-21T08:55:56.020Z,27.42
2023-03-21T08:57:22.631Z,28.15
2023-03-21T08:58:47.962Z,28.35
2023-03-21T09:00:14.795Z,27.23
2023-03-21T09:01:39.571Z,27.13
2023-03-21T09:03:02.356Z,28.20
2023-03-21T09:04:26.239Z,27.60
2023-03-21T09:05:48.769Z,28.48
2023-03-21T09:07:11.382Z,27.70
2023-03-21T09:08:34.199Z,28.90
2023-03-21T09:10:19.082Z,28.33
2023-03-21T09:11:42.040Z,25.42
2023-03-21T09:13:07.505Z,28.23
2023-03-21T09:14:30.297Z,26.63
2023-03-21T09:15:53.230Z,25.92
2023-03-21T09:17:21.122Z,28.23
2023-03-21T09:18:47.500Z,27.17
2023-03-21T09:20:11.898Z,27.58
2023-03-21T09:21:34.361Z,27.85
2023-03-21T09:22:57.067Z,27.05
2023-03-21T09:24:19.543Z,28.55
2023-03-21T09:25:46.255Z,26.48
2023-03-21T09:27:08.805Z,28.27
2023-03-21T09:28:31.697Z,25.52
2023-03-21T09:29:54.339Z,28.15
2023-03-21T09:31:23.081Z,28.13
2023-03-21T09:32:50.933Z,27.60
2023-03-21T09:34:17.833Z,26.20
2023-03-21T09:35:41.247Z,27.02
2023-03-21T09:37:11.354Z,26.08
2023-03-21T09:38:36.982Z,25.85
2023-03-21T09:39:59.736Z,27.13
2023-03-21T09:41:51.849Z,26.77
2023-03-21T09:43:27.801Z,25.33
2023-03-21T09:45:06.707Z,25.23
2023-03-21T09:46:38.609Z,26.85
2023-03-21T09:48:04.058Z,26.45
2023-03-21T09:50:01.727Z,27.27
2023-03-21T09:51:37.210Z,26.27
2023-03-21T09:53:06.972Z,25.02
2023-03-21T09:54:48.096Z,24.88
2023-03-21T09:56:14.350Z,25.38
2023-03-21T09:57:43.546Z,23.98
2023-03-21T09:59:10.723Z,26.58
2023-03-21T10:00:38.745Z,27.95
2023-03-21T10:02:03.483Z,26.15
2023-03-21T10:03:27.668Z,26.52
2023-03-21T10:04:50.653Z,26.35
2023-03-21T10:06:16.610Z,26.30
2023-03-21T10:07:49.154Z,27.85
2023-03-21T10:09:17.374Z,26.38
2023-03-21T10:10:48.999Z,27.35
2023-03-21T10:12:21.239Z,27.13
2023-03-21T10:13:59.088Z,27.60
2023-03-21T10:15:23.844Z,27.98
2023-03-21T10:16:50.648Z,28.08
2023-03-21T10:18:22.518Z,26.85
2023-03-21T10:19:47.049Z,26.58
2023-03-21T10:21:37.225Z,26.13
2023-03-21T10:23:03.016Z,27.05
2023-03-21T10:24:39.011Z,27.02
2023-03-21T10:26:06.217Z,26.88
2023-03-21T10:27:32.901Z,26.70
2023-03-21T10:29:03.175Z,27.30
2023-03-21T10:30:43.523Z,26.20
2023-03-21T10:32:08.268Z,27.23
2023-03-21T10:33:37.683Z,26.85
2023-03-21T10:35:04.337Z,26.60
2023-03-21T10:36:32.093Z,28.63
2023-03-21T10:37:54.972Z,27.13
2023-03-21T10:39:37.950Z,28.83
2023-03-21T10:41:03.518Z,27.88
2023-03-21T10:42:33.540Z,29.73
2023-03-21T10:44:17.721Z,27.95
2023-03-21T10:45:41.113Z,28.67
2023-03-21T10:47:14.386Z,29.30
2023-03-21T10:48:39.175Z,28.50
2023-03-21T10:50:16.529Z,28.70
2023-03-21T10:51:43.155Z,28.10
2023-03-21T10:53:22.877Z,28.73
2023-03-21T10:54:48.619Z,28.70
2023-03-21T10:56:14.954Z,27.55
2023-03-21T10:57:38.552Z,27.73
2023-03-21T10:59:02.880Z,28.15
2023-03-21T11:00:33.888Z,27.85
2023-03-21T11:02:02.726Z,27.50
2023-03-21T11:03:29.435Z,28.27
2023-03-21T11:04:53.330Z,29.08
2023-03-21T11:06:19.190Z,28.15
2023-03-21T11:07:41.049Z,28.60
2023-03-21T11:10:34.449Z,28.17
2023-03-21T11:12:03.554Z,30.02
2023-03-21T11:13:27.726Z,31.27
2023-03-21T11:14:51.545Z,29.77
2023-03-21T11:16:26.317Z,30.55
2023-03-21T11:17:49.128Z,29.67
2023-03-21T11:19:16.672Z,29.90
2023-03-21T11:20:45.949Z,30.08
2023-03-21T11:22:09.689Z,29.38
2023-03-21T11:23:33.240Z,31.88
2023-03-21T11:25:00.903Z,29.48
2023-03-21T11:26:27.568Z,32.42
2023-03-21T11:27:52.011Z,30.88
2023-03-21T11:29:27.624Z,32.22
2023-03-21T11:30:59.112Z,32.13
2023-03-21T11:35:26.429Z,30.95
2023-03-21T11:36:52.490Z,32.42
2023-03-21T11:38:29.194Z,31.15
2023-03-21T11:39:56.806Z,32.22
2023-03-21T11:41:24.956Z,34.78
2023-03-21T11:42:49.951Z,33.70
2023-03-21T11:44:28.536Z,32.08
2023-03-21T11:45:58.393Z,32.33
2023-03-21T11:47:24.214Z,32.28
2023-03-21T11:49:00.068Z,33.10
2023-03-21T11:50:33.992Z,33.75
2023-03-21T11:52:18.728Z,34.42
2023-03-21T11:53:50.556Z,33.85
2023-03-21T11:55:26.331Z,33.55
2023-03-21T11:56:52.328Z,36.00
2023-03-21T11:58:34.216Z,34.05
2023-03-21T12:00:10.760Z,35.85
2023-03-21T12:01:39.138Z,35.33
2023-03-21T12:03:47.273Z,34.97
2023-03-21T12:05:29.201Z,32.83
2023-03-21T12:07:01.886Z,32.25
2023-03-21T12:08:38.414Z,33.75
2023-03-21T12:10:19.692Z,33.40
2023-03-21T12:11:52.570Z,32.33
2023-03-21T12:13:34.492Z,31.92
2023-03-21T12:15:04.806Z,32.17
2023-03-21T12:16:36.929Z,34.42
2023-03-21T12:18:08.358Z,35.25
2023-03-21T12:19:53.601Z,34.40
2023-03-21T12:21:21.717Z,33.75
2023-03-21T12:22:58.143Z,36.88
2023-03-21T12:24:26.406Z,35.20
2023-03-21T12:25:56.827Z,34.00
2023-03-21T12:27:31.907Z,34.47
2023-03-21T12:29:14.605Z,34.58
2023-03-21T12:30:49.833Z,33.80
2023-03-21T12:32:25.920Z,35.40
2023-03-21T12:34:00.250Z,33.33
2023-03-21T12:35:36.645Z,32.58
2023-03-21T12:37:15.501Z,34.70
2023-03-21T12:38:45.449Z,30.70
2023-03-21T12:40:21.675Z,31.60
2023-03-21T12:42:00.608Z,31.80
2023-03-21T12:43:32.756Z,31.10
2023-03-21T12:45:06.291Z,33.45
2023-03-21T12:46:41.157Z,32.63
2023-03-21T12:48:19.729Z,31.77
2023-03-21T12:49:49.521Z,31.92
2023-03-21T12:51:16.919Z,31.85
2023-03-21T12:52:43.992Z,32.05
2023-03-21T12:54:23.004Z,31.63
2023-03-21T12:55:46.591Z,29.30
2023-03-21T12:57:18.101Z,31.30
2023-03-21T12:58:48.101Z,31.10
2023-03-21T13:00:17.813Z,29.98
2023-03-21T13:01:41.965Z,29.45
2023-03-21T13:03:07.085Z,31.00
2023-03-21T13:04:51.623Z,29.92
2023-03-21T13:06:15.651Z,29.38
2023-03-21T13:07:43.215Z,29.42
2023-03-21T13:09:25.781Z,29.20
2023-03-21T13:12:47.460Z,29.30
2023-03-21T13:14:18.864Z,29.95
2023-03-21T13:16:23.537Z,31.73
2023-03-21T13:17:47.544Z,31.50
2023-03-21T13:19:26.085Z,29.80
2023-03-21T13:20:53.285Z,32.35
2023-03-21T13:22:26.759Z,33.00
2023-03-21T13:24:28.295Z,31.63
2023-03-21T13:26:22.633Z,31.58
2023-03-21T13:30:40.166Z,32.58
2023-03-21T13:32:12.758Z,33.25
2023-03-21T13:37:22.928Z,32.35
2023-03-21T13:38:51.963Z,32.00
2023-03-21T13:40:26.541Z,30.52
2023-03-21T13:41:50.915Z,32.50
2023-03-21T13:43:43.783Z,30.98
2023-03-21T13:45:12.149Z,31.58
2023-03-21T13:46:54.021Z,32.10
2023-03-21T13:48:30.157Z,32.10
2023-03-21T13:50:16.726Z,30.75
2023-03-21T13:51:53.592Z,30.85
2023-03-21T13:53:24.755Z,30.60
2023-03-21T13:54:53.500Z,31.55
2023-03-21T13:56:28.377Z,29.65
2023-03-21T13:57:50.471Z,30.88
2023-03-21T13:59:14.022Z,31.55
2023-03-21T14:00:41.384Z,32.15
2023-03-21T14:02:23.473Z,33.28
2023-03-21T14:03:47.234Z,31.45
2023-03-21T14:05:22.093Z,31.30
2023-03-21T14:06:51.547Z,29.73
2023-03-21T14:08:31.223Z,30.02
2023-03-21T14:10:01.365Z,30.83
2023-03-21T14:11:25.305Z,26.65
2023-03-21T14:12:47.934Z,26.67
2023-03-21T14:14:11.053Z,27.40
2023-03-21T14:15:53.143Z,28.30
2023-03-21T14:17:24.800Z,27.23
2023-03-21T14:18:55.093Z,25.20
2023-03-21T14:20:21.659Z,25.30
2023-03-21T14:21:51.671Z,25.67
2023-03-21T14:23:16.458Z,26.25
2023-03-21T14:24:38.792Z,23.48
2023-03-21T14:26:01.525Z,24.55
2023-03-21T14:27:29.163Z,22.98
2023-03-21T14:28:53.441Z,24.42
2023-03-21T14:30:23.186Z,22.40
2023-03-21T14:31:48.467Z,23.00
2023-03-21T14:33:18.549Z,23.55
2023-03-21T14:34:43.085Z,22.92
2023-03-21T14:36:14.966Z,25.02
2023-03-21T14:37:42.495Z,26.50
2023-03-21T14:39:07.477Z,24.58
2023-03-21T14:40:31.155Z,26.88
2023-03-21T14:41:55.159Z,27.75
2023-03-21T14:43:23.338Z,26.73
2023-03-21T14:44:55.942Z,27.30
2023-03-21T14:46:26.161Z,25.10
2023-03-21T14:48:01.657Z,26.17
2023-03-21T14:49:30.851Z,24.20
2023-03-21T14:50:56.040Z,24.77
2023-03-21T14:52:25.642Z,26.38
2023-03-21T14:53:46.946Z,25.38
2023-03-21T14:55:16.980Z,26.33
2023-03-21T14:56:42.772Z,26.42
2023-03-21T14:58:10.120Z,26.88
2023-03-21T14:59:37.186Z,27.30
2023-03-21T15:01:04.222Z,28.00
2023-03-21T15:02:30.364Z,28.25
2023-03-21T15:03:53.401Z,27.38
2023-03-21T15:05:21.848Z,27.15
2023-03-21T15:07:02.488Z,27.30
2023-03-21T15:08:30.092Z,28.23
2023-03-21T15:09:55.998Z,28.45
2023-03-21T15:11:21.921Z,28.58
2023-03-21T15:13:03.337Z,29.08
2023-03-21T15:14:34.369Z,28.42
2023-03-21T15:16:06.050Z,30.60
2023-03-21T15:17:40.060Z,29.42
2023-03-21T15:19:05.491Z,30.98
2023-03-21T15:20:36.730Z,29.15
2023-03-21T15:22:15.944Z,31.05
2023-03-21T15:23:41.678Z,30.15
2023-03-21T15:25:05.994Z,30.08
2023-03-21T15:26:28.986Z,29.10
2023-03-21T15:27:57.266Z,28.55
2023-03-21T15:29:21.671Z,29.48
2023-03-21T15:30:53.343Z,30.73
2023-03-21T15:32:22.751Z,30.90
2023-03-21T15:33:51.363Z,29.83
2023-03-21T15:35:22.118Z,30.20
2023-03-21T15:36:50.996Z,29.50
2023-03-21T15:38:40.197Z,30.20
2023-03-21T15:40:17.078Z,30.83
2023-03-21T15:41:42.817Z,28.17
2023-03-21T15:43:15.410Z,29.33
2023-03-21T15:44:40.851Z,29.67
2023-03-21T15:46:20.821Z,29.90
2023-03-21T15:48:17.260Z,28.92
2023-03-21T15:50:08.834Z,27.25
2023-03-21T15:51:46.863Z,28.63
2023-03-21T15:53:25.285Z,28.60
2023-03-21T15:55:11.432Z,28.17
2023-03-21T15:56:38.250Z,30.05
2023-03-21T15:58:07.508Z,29.08
2023-03-21T15:59:37.901Z,30.90
2023-03-21T16:01:06.534Z,30.60
2023-03-21T16:02:32.406Z,28.30
2023-03-21T16:04:03.502Z,30.13
2023-03-21T16:05:28.815Z,29.20
2023-03-21T16:06:58.729Z,27.67
2023-03-21T16:08:24.082Z,30.05
2023-03-21T16:09:48.289Z,31.80
2023-03-21T16:11:19.530Z,30.52
2023-03-21T16:12:43.272Z,31.35
2023-03-21T16:14:07.107Z,31.98
2023-03-21T16:15:34.930Z,32.60
2023-03-21T16:16:59.317Z,33.88
2023-03-21T16:18:20.635Z,32.90
2023-03-21T16:19:45.651Z,31.02
2023-03-21T16:21:17.804Z,31.42
2023-03-21T16:22:44.853Z,32.85
2023-03-21T16:24:11.875Z,31.30
2023-03-21T16:25:35.899Z,31.52
2023-03-21T16:27:02.981Z,33.22
2023-03-21T16:28:32.024Z,31.88
2023-03-21T16:29:54.620Z,32.08
2023-03-21T16:31:24.487Z,32.50
2023-03-21T16:33:16.621Z,34.42
2023-03-21T16:34:54.347Z,32.03
2023-03-21T16:36:22.943Z,32.90
2023-03-21T16:37:46.028Z,33.67
2023-03-21T16:39:18.275Z,32.03
2023-03-21T16:42:03.775Z,32.25
2023-03-21T16:43:27.254Z,31.85
2023-03-21T16:44:51.974Z,33.90
2023-03-21T16:46:30.196Z,32.22
2023-03-21T16:47:58.060Z,32.55
2023-03-21T16:49:26.017Z,31.92
2023-03-21T16:50:53.345Z,34.10
2023-03-21T16:52:26.352Z,33.83
2023-03-21T16:53:56.254Z,33.50
2023-03-21T16:55:27.331Z,34.50
2023-03-21T16:56:54.053Z,33.40
2023-03-21T16:58:17.534Z,33.40
2023-03-21T16:59:41.099Z,33.95
2023-03-21T17:01:03.464Z,34.15
2023-03-21T17:02:30.168Z,35.13
2023-03-21T17:04:08.348Z,33.70
2023-03-21T17:05:32.156Z,35.08
2023-03-21T17:06:56.063Z,36.80
2023-03-21T17:11:02.690Z,35.00
2023-03-21T17:12:48.739Z,35.60
2023-03-21T17:14:18.136Z,36.00
2023-03-21T17:15:41.801Z,35.13
2023-03-21T17:17:04.928Z,37.40
2023-03-21T17:18:31.022Z,35.33
2023-03-21T17:19:53.410Z,36.72
2023-03-21T17:21:19.828Z,37.83
2023-03-21T17:22:46.344Z,36.40
2023-03-21T17:24:09.428Z,38.05
2023-03-21T17:25:35.899Z,35.60
2023-03-21T17:26:59.295Z,37.17
2023-03-21T17:28:20.377Z,38.42
2023-03-21T17:29:45.607Z,38.80
2023-03-21T17:31:17.952Z,37.53
2023-03-21T17:32:41.161Z,36.45
2023-03-21T17:34:04.630Z,36.92
2023-03-21T17:35:29.041Z,37.55
2023-03-21T17:36:54.915Z,37.20
2023-03-21T17:38:22.381Z,38.53
2023-03-21T17:39:51.065Z,37.83
2023-03-21T17:41:18.676Z,38.85
2023-03-21T17:42:49.405Z,37.90
2023-03-21T17:44:17.934Z,35.83
2023-03-21T17:45:40.215Z,37.03
2023-03-21T17:47:06.064Z,37.65
2023-03-21T17:48:30.597Z,38.00
2023-03-21T17:49:54.706Z,38.72
2023-03-21T17:51:23.223Z,38.90
2023-03-21T17:52:49.628Z,37.83
2023-03-21T17:54:15.022Z,40.33
2023-03-21T17:55:44.382Z,39.78
2023-03-21T17:57:19.514Z,40.50
2023-03-21T17:58:45.251Z,41.58
2023-03-21T18:00:13.181Z,43.97
2023-03-21T18:01:36.633Z,44.65
2023-03-21T18:03:04.428Z,44.30
2023-03-21T18:04:30.335Z,43.30
2023-03-21T18:05:52.853Z,45.17
2023-03-21T18:07:28.634Z,46.95
2023-03-21T18:09:00.383Z,48.75
2023-03-21T18:10:26.743Z,46.83
2023-03-21T18:11:50.162Z,49.22
2023-03-21T18:13:25.554Z,47.03
2023-03-21T18:14:50.203Z,49.38
2023-03-21T18:16:45.426Z,48.92
2023-03-21T18:18:13.062Z,47.95
2023-03-21T18:19:38.731Z,50.38
2023-03-21T18:21:10.963Z,49.63
2023-03-21T18:22:33.740Z,49.85
2023-03-21T18:23:57.820Z,48.60
2023-03-21T18:25:20.611Z,51.35
2023-03-21T18:26:46.205Z,51.70
2023-03-21T18:28:21.402Z,49.17
2023-03-21T18:30:28.898Z,50.63
2023-03-21T18:31:37.221Z,51.15
2023-03-21T18:33:00.162Z,49.95
2023-03-21T18:34:30.179Z,50.10
2023-03-21T18:35:58.793Z,48.83
2023-03-21T18:37:22.890Z,48.35
2023-03-21T18:38:51.378Z,48.55
2023-03-21T18:40:22.921Z,48.10
2023-03-21T18:42:04.144Z,50.15
2023-03-21T18:45:27.201Z,47.88
2023-03-21T18:47:13.944Z,47.85
2023-03-21T18:48:40.344Z,48.90
2023-03-21T18:50:14.120Z,48.17
2023-03-21T18:51:50.982Z,47.65
2023-03-21T18:53:24.344Z,47.80
2023-03-21T18:54:49.463Z,47.92
2023-03-21T18:57:13.124Z,48.83
2023-03-21T18:58:19.436Z,47.58
2023-03-21T18:59:52.798Z,47.55
2023-03-21T19:01:18.465Z,47.28
2023-03-21T19:02:46.736Z,47.20
2023-03-21T19:04:25.556Z,48.40
2023-03-21T19:05:54.566Z,47.13
2023-03-21T19:07:22.204Z,47.55
2023-03-21T19:08:50.215Z,49.28
2023-03-21T19:10:18.594Z,50.15
2023-03-21T19:11:51.749Z,49.53
2023-03-21T19:13:30.658Z,48.97
2023-03-21T19:15:37.964Z,50.42
2023-03-21T19:21:15.919Z,50.38
2023-03-21T19:22:38.336Z,49.00
2023-03-21T19:24:26.647Z,49.38
2023-03-21T19:25:50.946Z,51.15
2023-03-21T19:27:14.059Z,52.08
2023-03-21T19:28:38.279Z,52.60
2023-03-21T19:30:15.770Z,53.42
2023-03-21T19:31:41.650Z,53.22
2023-03-21T19:35:41.083Z,51.63
2023-03-21T19:38:47.503Z,51.42
2023-03-21T19:38:59.930Z,52.30
2023-03-21T19:40:59.084Z,51.42
2023-03-21T19:42:23.516Z,51.40